Time;durP1;ratioP1;P1;durP2;ratioP2;P2;SDS_P1;SDS_P2;PMS_P1;PMS_P2;Temp;Humidity;BMP_temperature;BMP_pressure;BME280_temperature;BME280_humidity;BME280_pressure;Samples;Min_cycle;Max_cycle;Signal;HPM_P1;HPM_P2
2023/01/09 00:00:17;;;;;;;0.88;0.60;;;9.10;99.90;;;;;;5075074;28;20028;-81
2023/01/09 00:02:43;;;;;;;0.98;0.30;;;9.60;99.90;;;;;;5074750;28;20040;-82
2023/01/09 00:05:14;;;;;;;0.75;0.50;;;9.20;99.90;;;;;;5075443;28;20107;-81
2023/01/09 00:07:40;;;;;;;0.60;0.43;;;9.20;99.90;;;;;;5075910;28;20029;-81
2023/01/09 00:10:07;;;;;;;0.70;0.50;;;9.30;99.90;;;;;;5075399;28;20124;-81
2023/01/09 00:12:33;;;;;;;0.60;0.32;;;9.40;99.90;;;;;;5075195;28;20035;-81
2023/01/09 00:14:59;;;;;;;0.10;0.10;;;9.60;99.90;;;;;;5074759;28;20063;-81
2023/01/09 00:17:24;;;;;;;0.85;0.40;;;10.00;99.90;;;;;;5075112;28;20059;-82
2023/01/09 00:19:50;;;;;;;0.57;0.30;;;10.10;99.90;;;;;;5075617;28;20042;-81
2023/01/09 00:22:16;;;;;;;0.47;0.30;;;10.20;99.90;;;;;;5074277;28;20033;-81
2023/01/09 00:24:41;;;;;;;0.68;0.47;;;10.10;99.90;;;;;;5074795;28;20028;-81
2023/01/09 00:27:07;;;;;;;0.22;0.10;;;10.10;99.90;;;;;;5075216;28;20381;-81
2023/01/09 00:29:33;;;;;;;0.63;0.30;;;10.10;99.90;;;;;;5074634;28;20040;-82
2023/01/09 00:31:58;;;;;;;0.70;0.30;;;10.00;99.90;;;;;;5074290;28;20028;-81
2023/01/09 00:34:25;;;;;;;1.02;0.32;;;10.10;99.90;;;;;;5075464;28;20451;-81
2023/01/09 00:36:55;;;;;;;0.43;0.32;;;10.00;99.90;;;;;;5068477;28;20540;-81
2023/01/09 00:39:21;;;;;;;0.40;0.30;;;9.90;99.90;;;;;;5054579;28;20021;-81
2023/01/09 00:41:52;;;;;;;1.20;0.50;;;9.80;99.90;;;;;;5055755;28;20029;-81
2023/01/09 00:44:29;;;;;;;0.52;0.40;;;9.80;99.90;;;;;;5054846;28;20060;-82
2023/01/09 00:47:00;;;;;;;1.58;0.20;;;9.70;99.90;;;;;;5054312;28;20400;-82
2023/01/09 00:49:29;;;;;;;0.65;0.40;;;9.60;99.90;;;;;;5054074;28;20140;-82
2023/01/09 00:51:55;;;;;;;0.95;0.50;;;9.40;99.90;;;;;;5054998;28;20100;-82
2023/01/09 00:54:22;;;;;;;0.30;0.30;;;9.40;99.90;;;;;;5066352;28;20529;-81
2023/01/09 00:56:48;;;;;;;0.30;0.30;;;9.40;99.90;;;;;;5074173;28;20433;-81
2023/01/09 00:59:14;;;;;;;1.00;0.52;;;9.30;99.90;;;;;;5073594;28;20395;-81
2023/01/09 01:01:40;;;;;;;0.38;0.20;;;9.20;99.90;;;;;;5073601;28;20024;-81
2023/01/09 01:09:33;;;;;;;0.55;0.38;;;9.10;99.90;;;;;;5073683;28;20043;-81
2023/01/09 01:12:05;;;;;;;1.33;0.47;;;9.20;99.90;;;;;;5073251;28;20033;-81
2023/01/09 01:14:32;;;;;;;0.85;0.35;;;9.30;99.90;;;;;;5073573;28;20103;-81
2023/01/09 01:16:58;;;;;;;1.30;0.47;;;9.30;99.90;;;;;;5073438;28;20370;-81
2023/01/09 01:19:23;;;;;;;0.30;0.30;;;9.20;99.90;;;;;;5073358;28;20028;-81
2023/01/09 01:21:49;;;;;;;1.20;0.30;;;9.20;99.90;;;;;;5073330;28;20020;-81
2023/01/09 01:24:18;;;;;;;0.43;0.40;;;9.20;99.90;;;;;;5073463;28;20052;-81
2023/01/09 01:26:44;;;;;;;0.68;0.50;;;9.20;99.90;;;;;;5073320;28;20024;-81
2023/01/09 01:29:10;;;;;;;0.85;0.40;;;9.20;99.90;;;;;;5073012;28;20405;-81
2023/01/09 01:31:36;;;;;;;0.63;0.22;;;9.20;99.90;;;;;;5072742;28;20027;-81
2023/01/09 01:34:01;;;;;;;0.45;0.38;;;9.20;99.90;;;;;;5072887;28;20469;-81
2023/01/09 01:36:27;;;;;;;0.38;0.32;;;9.20;99.90;;;;;;5073454;28;20035;-81
2023/01/09 01:38:52;;;;;;;1.95;0.68;;;9.20;99.90;;;;;;5073301;28;20028;-81
2023/01/09 01:41:28;;;;;;;1.20;0.50;;;9.10;99.90;;;;;;5073282;28;20020;-81
2023/01/09 01:43:58;;;;;;;1.83;0.70;;;9.10;99.90;;;;;;5073448;28;20048;-82
2023/01/09 01:46:24;;;;;;;1.17;0.70;;;9.10;99.90;;;;;;5072462;28;20115;-82
2023/01/09 01:49:05;;;;;;;9.20;3.78;;;9.10;99.90;;;;;;5073097;28;20529;-81
2023/01/09 01:51:33;;;;;;;2.60;1.70;;;9.20;99.90;;;;;;5073105;28;20028;-82
2023/01/09 01:54:05;;;;;;;1.52;0.80;;;9.10;99.90;;;;;;5063909;28;20481;-81
2023/01/09 01:56:45;;;;;;;2.58;1.20;;;9.20;99.90;;;;;;5053461;28;20488;-82
2023/01/09 01:59:39;;;;;;;3.55;1.85;;;9.10;99.90;;;;;;5053073;28;20025;-81
2023/01/09 02:02:06;;;;;;;1.85;0.52;;;9.10;99.90;;;;;;5052608;28;20041;-81
2023/01/09 02:04:34;;;;;;;0.43;0.30;;;9.20;99.90;;;;;;5068127;28;20021;-81
2023/01/09 02:07:05;;;;;;;0.47;0.40;;;9.20;99.90;;;;;;5073045;28;20492;-82
2023/01/09 02:09:30;;;;;;;1.00;0.38;;;9.30;99.90;;;;;;5073434;28;20029;-82
2023/01/09 02:11:59;;;;;;;1.08;0.50;;;9.30;99.90;;;;;;5073586;28;20043;-82
2023/01/09 02:14:31;;;;;;;1.63;0.70;;;9.30;99.90;;;;;;5073238;28;20025;-82
2023/01/09 02:17:30;;;;;;;0.60;0.50;;;9.30;99.90;;;;;;5072997;28;20108;-81
2023/01/09 02:20:18;;;;;;;1.42;1.17;;;9.30;99.90;;;;;;5071189;28;20025;-81
2023/01/09 02:22:56;;;;;;;3.05;2.72;;;9.20;99.90;;;;;;5072105;28;20031;-81
2023/01/09 02:25:54;;;;;;;2.28;1.00;;;9.20;99.90;;;;;;5073067;28;20021;-81
2023/01/09 02:28:44;;;;;;;1.15;0.60;;;9.20;99.90;;;;;;5071789;28;20124;-82
2023/01/09 02:31:20;;;;;;;1.77;0.50;;;9.20;99.90;;;;;;5072652;28;20043;-81
2023/01/09 02:34:30;;;;;;;0.98;0.63;;;9.30;99.90;;;;;;5072506;28;20025;-81
2023/01/09 02:37:18;;;;;;;1.05;0.40;;;9.30;99.90;;;;;;5071409;28;20086;-81
2023/01/09 02:40:09;;;;;;;1.30;0.30;;;9.40;99.90;;;;;;5072500;28;20032;-81
2023/01/09 02:42:36;;;;;;;0.60;0.40;;;9.40;99.90;;;;;;5073289;28;20032;-81
2023/01/09 02:45:02;;;;;;;0.30;0.30;;;9.50;99.90;;;;;;5072317;28;20031;-82
2023/01/09 02:47:28;;;;;;;1.52;1.23;;;9.50;99.90;;;;;;5072467;28;20119;-81
2023/01/09 02:50:07;;;;;;;1.08;0.80;;;9.10;99.90;;;;;;5072912;28;20116;-82
2023/01/09 02:52:51;;;;;;;2.72;0.80;;;8.90;99.90;;;;;;5072778;28;20051;-82
2023/01/09 02:55:38;;;;;;;3.92;0.52;;;8.80;99.90;;;;;;5052615;28;20039;-81
2023/01/09 02:58:16;;;;;;;3.03;0.70;;;8.70;99.90;;;;;;5052481;28;20024;-81
2023/01/09 03:01:33;;;;;;;0.73;0.38;;;8.50;99.90;;;;;;5052046;28;20025;-81
2023/01/09 03:04:19;;;;;;;1.95;0.73;;;8.50;99.90;;;;;;5054535;28;20036;-82
2023/01/09 03:06:51;;;;;;;1.73;0.50;;;8.40;99.90;;;;;;5072036;28;20047;-81
2023/01/09 03:09:21;;;;;;;1.15;0.90;;;8.30;99.90;;;;;;5072514;28;20024;-81
2023/01/09 03:11:51;;;;;;;1.15;0.70;;;8.20;99.90;;;;;;5071829;28;20032;-81
2023/01/09 03:14:21;;;;;;;1.48;0.90;;;8.20;99.90;;;;;;5072599;28;20024;-81
2023/01/09 03:16:51;;;;;;;2.45;0.70;;;8.10;99.90;;;;;;5072383;28;20489;-81
2023/01/09 03:19:21;;;;;;;1.10;0.70;;;8.00;99.90;;;;;;5071814;28;20039;-81
2023/01/09 03:21:47;;;;;;;1.85;0.73;;;8.00;99.90;;;;;;5072437;28;20024;-81
2023/01/09 03:24:13;;;;;;;1.90;0.80;;;7.90;99.90;;;;;;5072480;28;20024;-81
2023/01/09 03:26:39;;;;;;;1.20;0.50;;;7.90;99.90;;;;;;5071849;28;20366;-81
2023/01/09 03:29:04;;;;;;;0.52;0.52;;;7.80;99.90;;;;;;5072727;28;20051;-81
2023/01/09 03:31:30;;;;;;;1.33;0.75;;;7.80;99.90;;;;;;5072261;28;20485;-80
2023/01/09 03:33:56;;;;;;;1.70;0.82;;;7.90;99.90;;;;;;5072823;28;20485;-81
2023/01/09 03:36:23;;;;;;;1.38;0.70;;;7.80;99.90;;;;;;5072215;28;20370;-81
2023/01/09 03:38:50;;;;;;;1.23;0.60;;;7.80;99.90;;;;;;5075095;28;20370;-83
2023/01/09 03:41:16;;;;;;;1.52;0.77;;;7.80;99.90;;;;;;5075634;28;20503;-81
2023/01/09 03:43:42;;;;;;;1.30;0.40;;;7.70;99.90;;;;;;5075684;28;20032;-81
2023/01/09 03:46:08;;;;;;;1.95;0.45;;;7.60;99.90;;;;;;5075995;28;20137;-84
2023/01/09 03:48:34;;;;;;;1.27;0.50;;;7.50;99.90;;;;;;5075166;28;20138;-84
2023/01/09 03:50:59;;;;;;;2.05;0.70;;;7.40;99.90;;;;;;5075504;28;20633;-84
2023/01/09 03:53:27;;;;;;;1.85;0.90;;;7.40;99.90;;;;;;5075522;28;20154;-84
2023/01/09 03:55:54;;;;;;;2.45;1.50;;;7.40;99.90;;;;;;5074821;28;20032;-83
2023/01/09 03:58:21;;;;;;;1.15;0.60;;;7.50;99.90;;;;;;5074964;28;20480;-81
2023/01/09 04:00:48;;;;;;;0.90;0.80;;;7.40;99.90;;;;;;5074558;28;20039;-81
2023/01/09 04:03:15;;;;;;;0.60;0.60;;;7.40;99.90;;;;;;5074740;28;20504;-81
2023/01/09 04:05:42;;;;;;;0.60;0.60;;;7.30;99.90;;;;;;5074647;28;20047;-81
2023/01/09 04:08:08;;;;;;;3.55;0.70;;;7.20;99.90;;;;;;5074595;28;20090;-81
2023/01/09 04:10:33;;;;;;;0.82;0.68;;;7.20;99.90;;;;;;5074324;28;20028;-81
2023/01/09 04:12:59;;;;;;;0.80;0.70;;;7.10;99.90;;;;;;5074768;28;20028;-81
2023/01/09 04:15:24;;;;;;;1.02;0.68;;;7.10;99.90;;;;;;5074411;28;20020;-81
2023/01/09 04:17:50;;;;;;;1.08;0.70;;;7.10;99.90;;;;;;5074557;28;20369;-81
2023/01/09 04:20:17;;;;;;;1.05;0.77;;;7.00;99.90;;;;;;5075457;28;20051;-82
2023/01/09 04:22:43;;;;;;;0.63;0.52;;;7.00;99.90;;;;;;5074535;28;20029;-81
2023/01/09 04:25:09;;;;;;;1.17;0.70;;;7.00;99.90;;;;;;5074133;28;20127;-81
2023/01/09 04:27:35;;;;;;;2.10;0.60;;;7.00;99.90;;;;;;5074676;28;20112;-81
2023/01/09 04:30:00;;;;;;;0.85;0.60;;;7.00;99.90;;;;;;5074354;28;20548;-81
2023/01/09 04:32:26;;;;;;;1.83;0.90;;;7.20;99.90;;;;;;5074340;28;20020;-81
2023/01/09 04:34:53;;;;;;;2.50;0.90;;;7.10;99.90;;;;;;5074572;28;20089;-82
2023/01/09 04:37:21;;;;;;;3.88;1.00;;;7.20;99.90;;;;;;5073960;28;20029;-82
2023/01/09 04:39:47;;;;;;;1.58;0.73;;;7.10;99.90;;;;;;5073539;28;20132;-81
2023/01/09 04:42:13;;;;;;;0.95;0.70;;;7.20;99.90;;;;;;5074419;28;20033;-82
2023/01/09 04:44:38;;;;;;;2.35;0.75;;;7.30;99.90;;;;;;5075173;28;20012;-81
2023/01/09 04:47:04;;;;;;;2.50;1.50;;;7.40;99.90;;;;;;5074280;28;20107;-82
2023/01/09 04:49:30;;;;;;;2.75;1.00;;;7.30;99.90;;;;;;5074340;28;20067;-82
2023/01/09 04:51:55;;;;;;;1.70;0.70;;;7.40;99.90;;;;;;5075449;28;20048;-82
2023/01/09 04:54:21;;;;;;;3.10;0.70;;;7.60;99.90;;;;;;5074684;28;20017;-81
2023/01/09 04:56:47;;;;;;;2.08;0.60;;;7.70;99.90;;;;;;5074220;28;20024;-82
2023/01/09 04:59:13;;;;;;;1.17;0.90;;;7.60;99.90;;;;;;5074562;28;20028;-81
2023/01/09 05:01:39;;;;;;;2.53;0.73;;;7.50;99.90;;;;;;5074357;28;20036;-81
2023/01/09 05:04:05;;;;;;;1.08;0.80;;;7.80;99.90;;;;;;5073609;28;20024;-81
2023/01/09 05:06:31;;;;;;;2.05;0.77;;;7.80;99.90;;;;;;5073566;28;20029;-82
2023/01/09 05:08:57;;;;;;;1.80;0.88;;;7.80;99.90;;;;;;5073634;28;20507;-82
2023/01/09 05:11:24;;;;;;;1.98;1.20;;;7.80;99.90;;;;;;5074171;28;20032;-81
2023/01/09 05:13:50;;;;;;;1.75;1.30;;;7.90;99.90;;;;;;5073668;28;20385;-81
2023/01/09 05:16:15;;;;;;;2.67;1.15;;;7.90;99.90;;;;;;5073434;28;20029;-82
2023/01/09 05:18:41;;;;;;;2.22;1.20;;;7.80;99.90;;;;;;5073777;28;20017;-81
2023/01/09 05:21:07;;;;;;;1.83;0.80;;;7.70;99.90;;;;;;5073272;28;20028;-82
2023/01/09 05:23:33;;;;;;;1.33;0.80;;;7.60;99.90;;;;;;5072887;28;20477;-81
2023/01/09 05:25:58;;;;;;;2.80;0.90;;;7.60;99.90;;;;;;5073107;28;20032;-81
2023/01/09 05:28:24;;;;;;;1.50;0.80;;;7.60;99.90;;;;;;5073435;28;20023;-82
2023/01/09 05:30:49;;;;;;;1.63;0.90;;;7.30;99.90;;;;;;5073336;28;20569;-81
2023/01/09 05:33:15;;;;;;;2.17;0.93;;;7.40;99.90;;;;;;5073236;28;20673;-82
2023/01/09 05:35:41;;;;;;;1.50;1.30;;;7.30;99.90;;;;;;5072885;28;20399;-81
2023/01/09 05:38:06;;;;;;;1.30;1.10;;;7.10;99.90;;;;;;5072447;28;20025;-84
2023/01/09 05:40:32;;;;;;;1.20;0.85;;;7.10;99.90;;;;;;5073409;28;20543;-84
2023/01/09 05:42:58;;;;;;;1.67;1.00;;;7.00;99.90;;;;;;5072662;28;20071;-84
2023/01/09 05:45:25;;;;;;;1.20;0.90;;;7.00;99.90;;;;;;5073005;28;20032;-84
2023/01/09 05:47:51;;;;;;;2.67;0.70;;;7.00;99.90;;;;;;5072847;28;20036;-84
2023/01/09 05:50:17;;;;;;;2.15;0.73;;;6.70;99.90;;;;;;5072204;28;20093;-84
2023/01/09 05:52:43;;;;;;;2.97;0.68;;;6.70;99.90;;;;;;5072580;28;20025;-84
2023/01/09 05:55:10;;;;;;;3.20;1.40;;;6.80;99.90;;;;;;5071091;28;20043;-84
2023/01/09 05:57:35;;;;;;;3.22;1.60;;;6.80;99.90;;;;;;5072489;28;20019;-84
2023/01/09 06:00:01;;;;;;;2.15;1.40;;;6.90;99.90;;;;;;5071892;28;20498;-84
2023/01/09 06:02:26;;;;;;;3.95;2.50;;;7.00;99.90;;;;;;5072543;28;20016;-84
2023/01/09 06:04:52;;;;;;;4.80;2.50;;;6.70;99.90;;;;;;5072412;28;20554;-84
2023/01/09 06:07:18;;;;;;;2.35;1.38;;;6.60;99.90;;;;;;5072392;28;20139;-84
2023/01/09 06:09:43;;;;;;;4.70;1.80;;;6.60;99.90;;;;;;5072116;28;20519;-84
2023/01/09 06:12:09;;;;;;;4.68;2.08;;;6.80;99.90;;;;;;5072188;28;20074;-84
2023/01/09 06:14:35;;;;;;;2.95;1.58;;;6.60;99.90;;;;;;5072387;28;20021;-84
2023/01/09 06:17:01;;;;;;;2.80;1.60;;;6.50;99.90;;;;;;5072170;28;20511;-84
2023/01/09 06:19:27;;;;;;;3.50;1.90;;;6.70;99.90;;;;;;5072255;28;20032;-84
2023/01/09 06:21:52;;;;;;;2.67;2.00;;;6.70;99.90;;;;;;5072227;28;20020;-84
2023/01/09 06:24:18;;;;;;;4.18;2.50;;;6.60;99.90;;;;;;5071860;28;20519;-84
2023/01/09 06:26:44;;;;;;;4.78;2.30;;;6.60;99.90;;;;;;5071716;28;20074;-84
2023/01/09 06:29:10;;;;;;;3.20;2.35;;;6.60;99.90;;;;;;5071058;28;20044;-84
2023/01/09 06:31:36;;;;;;;4.07;2.40;;;6.80;99.90;;;;;;5072036;28;20032;-85
2023/01/09 06:34:01;;;;;;;4.07;2.33;;;6.90;99.90;;;;;;5072266;28;20390;-85
2023/01/09 06:36:27;;;;;;;4.75;2.08;;;6.70;99.90;;;;;;5071636;28;20032;-85
2023/01/09 06:38:52;;;;;;;1.90;1.45;;;6.80;99.90;;;;;;5071890;28;20028;-85
2023/01/09 06:41:18;;;;;;;3.35;1.60;;;6.80;99.90;;;;;;5071931;28;20365;-85
2023/01/09 06:43:44;;;;;;;3.90;1.73;;;6.60;99.90;;;;;;5071910;28;20501;-85
2023/01/09 06:46:09;;;;;;;1.85;1.50;;;6.70;99.90;;;;;;5072112;28;20526;-84
2023/01/09 06:48:35;;;;;;;3.60;1.90;;;6.70;99.90;;;;;;5071762;28;20051;-84
2023/01/09 06:51:01;;;;;;;4.15;2.20;;;6.90;99.90;;;;;;5071456;28;20119;-85
2023/01/09 06:53:27;;;;;;;4.38;2.28;;;6.90;99.90;;;;;;5071532;28;20040;-85
2023/01/09 06:55:53;;;;;;;4.68;2.35;;;7.10;99.90;;;;;;5071978;28;20488;-84
2023/01/09 06:58:19;;;;;;;4.70;2.20;;;7.10;99.90;;;;;;5072064;28;20112;-85
2023/01/09 07:00:45;;;;;;;3.03;2.40;;;7.00;99.90;;;;;;5071592;28;20051;-84
2023/01/09 07:03:11;;;;;;;5.72;2.10;;;7.10;99.90;;;;;;5071585;28;20473;-84
2023/01/09 07:05:41;;;;;;;5.82;1.50;;;7.00;99.90;;;;;;5071341;28;20033;-84
2023/01/09 07:08:08;;;;;;;2.67;1.70;;;7.10;99.90;;;;;;5071264;28;20046;-84
2023/01/09 07:10:34;;;;;;;4.05;1.48;;;7.00;99.90;;;;;;5071567;28;20086;-84
2023/01/09 07:12:59;;;;;;;4.47;2.03;;;6.90;99.90;;;;;;5074111;28;20082;-84
2023/01/09 07:15:25;;;;;;;2.42;1.52;;;6.80;99.90;;;;;;5075792;28;20028;-85
2023/01/09 07:17:51;;;;;;;3.33;1.60;;;6.70;99.90;;;;;;5075382;28;20021;-84
2023/01/09 07:20:17;;;;;;;3.88;1.98;;;6.70;99.90;;;;;;5075247;28;20103;-82
2023/01/09 07:22:44;;;;;;;5.55;2.10;;;6.80;99.90;;;;;;5075364;28;20465;-82
2023/01/09 07:25:10;;;;;;;5.38;2.13;;;6.60;99.90;;;;;;5075275;28;20420;-84
2023/01/09 07:27:35;;;;;;;4.75;2.13;;;6.50;99.90;;;;;;5075375;28;20028;-84
2023/01/09 07:30:02;;;;;;;5.13;2.50;;;6.60;99.90;;;;;;5074954;28;20052;-85
2023/01/09 07:32:28;;;;;;;5.63;2.20;;;6.70;99.90;;;;;;5074921;28;20388;-84
2023/01/09 07:34:53;;;;;;;5.80;2.28;;;6.80;99.90;;;;;;5075600;28;20029;-85
2023/01/09 07:37:19;;;;;;;3.90;2.00;;;6.90;99.90;;;;;;5075045;28;20097;-85
2023/01/09 07:39:45;;;;;;;5.95;2.40;;;7.10;99.90;;;;;;5075426;28;20055;-85
2023/01/09 07:42:10;;;;;;;5.38;2.85;;;7.20;99.90;;;;;;5074882;28;20039;-85
2023/01/09 07:44:36;;;;;;;5.32;3.03;;;7.10;99.90;;;;;;5074992;28;20058;-85
2023/01/09 07:47:02;;;;;;;6.97;4.18;;;7.00;99.90;;;;;;5074873;28;20035;-85
2023/01/09 07:49:28;;;;;;;6.70;4.00;;;6.90;99.90;;;;;;5074658;28;20029;-84
2023/01/09 07:51:54;;;;;;;7.47;3.50;;;6.80;99.90;;;;;;5074720;28;20035;-85
2023/01/09 07:54:20;;;;;;;6.93;3.30;;;6.90;99.90;;;;;;5074658;28;20024;-85
2023/01/09 07:56:46;;;;;;;7.18;3.22;;;7.00;99.90;;;;;;5074911;28;20408;-84
2023/01/09 07:59:12;;;;;;;5.03;3.30;;;7.20;99.90;;;;;;5075024;28;20046;-84
2023/01/09 08:01:37;;;;;;;6.18;3.13;;;7.60;99.90;;;;;;5074300;28;20373;-85
2023/01/09 08:04:03;;;;;;;4.50;2.65;;;7.50;99.90;;;;;;5073802;28;20056;-85
2023/01/09 08:06:30;;;;;;;4.70;3.20;;;7.40;99.90;;;;;;5074087;28;20024;-85
2023/01/09 08:08:56;;;;;;;6.95;2.97;;;7.30;99.90;;;;;;5074298;28;20032;-88
2023/01/09 08:11:23;;;;;;;6.53;3.15;;;7.30;99.90;;;;;;5075560;28;20032;-85
2023/01/09 08:13:48;;;;;;;6.03;4.00;;;7.20;99.90;;;;;;5075126;28;20051;-87
2023/01/09 08:16:14;;;;;;;4.38;2.95;;;7.20;99.90;;;;;;5074204;28;20052;-88
2023/01/09 08:18:40;;;;;;;7.72;3.15;;;7.30;99.90;;;;;;5074587;28;20416;-85
2023/01/09 08:21:06;;;;;;;8.07;3.05;;;7.30;99.90;;;;;;5073955;28;20389;-87
2023/01/09 08:23:31;;;;;;;5.18;2.85;;;7.30;99.90;;;;;;5073906;28;20100;-92
2023/01/09 08:25:57;;;;;;;5.70;2.63;;;7.40;99.90;;;;;;5074264;28;20043;-87
2023/01/09 08:28:23;;;;;;;6.40;2.83;;;7.30;99.90;;;;;;5074632;28;20374;-86
2023/01/09 08:30:48;;;;;;;6.88;2.70;;;7.40;99.90;;;;;;5073125;28;20061;-86
2023/01/09 08:33:14;;;;;;;7.13;2.80;;;7.40;99.90;;;;;;5074137;28;20085;-87
2023/01/09 08:35:42;;;;;;;5.20;2.72;;;7.40;99.90;;;;;;5075052;28;20067;-95
2023/01/09 08:38:08;;;;;;;4.93;2.67;;;7.40;99.90;;;;;;5073975;28;20013;-87
2023/01/09 08:40:33;;;;;;;4.90;2.60;;;7.50;99.90;;;;;;5073567;28;20036;-87
2023/01/09 08:48:27;;;;;;;7.25;2.88;;;7.70;99.90;;;;;;5073418;28;20074;-86
2023/01/09 08:50:53;;;;;;;7.10;2.75;;;7.70;99.90;;;;;;5073766;28;20480;-88
2023/01/09 08:53:19;;;;;;;7.05;3.55;;;7.80;99.90;;;;;;5073682;28;20074;-85
2023/01/09 08:55:45;;;;;;;5.95;3.22;;;7.80;99.90;;;;;;5073399;28;20528;-85
2023/01/09 08:58:10;;;;;;;8.65;3.03;;;7.90;99.90;;;;;;5074005;28;20036;-88
2023/01/09 09:00:36;;;;;;;4.93;2.75;;;7.90;99.90;;;;;;5072789;28;20048;-82
2023/01/09 09:03:02;;;;;;;8.65;3.60;;;8.00;99.90;;;;;;5072606;28;20029;-82
2023/01/09 09:05:30;;;;;;;6.63;3.00;;;8.10;99.90;;;;;;5072693;28;20033;-82
2023/01/09 09:07:55;;;;;;;5.38;2.50;;;8.30;99.90;;;;;;5073242;28;20037;-83
2023/01/09 09:10:23;;;;;;;4.88;2.42;;;8.50;99.90;;;;;;5073069;28;20043;-83
2023/01/09 09:12:53;;;;;;;9.65;3.20;;;8.80;99.90;;;;;;5073243;28;20095;-83
2023/01/09 09:15:23;;;;;;;6.57;2.47;;;9.00;99.90;;;;;;5073350;28;20036;-82
2023/01/09 09:17:57;;;;;;;10.77;2.40;;;9.10;99.90;;;;;;5073040;28;20030;-83
2023/01/09 09:20:24;;;;;;;5.80;2.10;;;9.20;99.90;;;;;;5073144;28;20041;-83
2023/01/09 09:22:50;;;;;;;7.07;1.70;;;9.20;99.90;;;;;;5073044;28;20025;-83
2023/01/09 09:25:17;;;;;;;2.70;1.50;;;9.40;99.90;;;;;;5073158;28;20024;-83
2023/01/09 09:27:43;;;;;;;4.97;1.73;;;9.60;99.90;;;;;;5072958;28;20067;-83
2023/01/09 09:30:10;;;;;;;7.22;1.77;;;9.70;99.90;;;;;;5072591;28;20052;-82
2023/01/09 09:32:37;;;;;;;4.47;1.83;;;9.90;99.90;;;;;;5072889;28;20024;-82
2023/01/09 09:35:03;;;;;;;5.28;2.00;;;10.30;99.90;;;;;;5072110;28;20500;-83
2023/01/09 09:37:29;;;;;;;10.02;2.80;;;13.90;99.90;;;;;;5073149;28;20059;-83
2023/01/09 09:39:55;;;;;;;8.27;2.35;;;14.00;99.90;;;;;;5072849;28;20063;-83
2023/01/09 09:46:03;;;;;;;4.80;1.83;;;13.70;99.90;;;;;;5052323;28;20031;-83
2023/01/09 09:48:42;;;;;;;3.58;1.27;;;16.80;99.90;;;;;;5052569;28;20021;-85
2023/01/09 09:51:38;;;;;;;2.42;1.08;;;15.80;99.90;;;;;;5052408;28;20047;-83
2023/01/09 09:54:11;;;;;;;4.05;1.30;;;13.80;99.90;;;;;;5062805;28;20091;-83
2023/01/09 09:56:45;;;;;;;3.20;1.30;;;11.80;99.90;;;;;;5072447;28;20548;-83
2023/01/09 09:59:23;;;;;;;3.60;1.30;;;13.80;99.90;;;;;;5072536;28;20024;-83
2023/01/09 10:02:00;;;;;;;3.15;1.33;;;16.90;99.90;;;;;;5072323;28;20027;-83
2023/01/09 10:04:30;;;;;;;3.53;1.42;;;19.30;99.90;;;;;;5072356;28;20025;-83
2023/01/09 10:07:04;;;;;;;5.70;1.60;;;16.30;99.90;;;;;;5072222;28;20025;-83
2023/01/09 10:09:50;;;;;;;4.05;1.75;;;13.90;99.90;;;;;;5072057;28;20029;-83
2023/01/09 10:12:37;;;;;;;5.20;2.10;;;16.40;99.90;;;;;;5071908;28;20110;-83
2023/01/09 10:15:16;;;;;;;4.35;1.40;;;19.80;99.90;;;;;;5071963;28;20024;-83
2023/01/09 10:17:43;;;;;;;3.55;1.30;;;21.20;99.90;;;;;;5072038;28;20046;-83
2023/01/09 10:20:24;;;;;;;2.78;1.20;;;18.50;99.90;;;;;;5072087;28;20021;-83
2023/01/09 10:23:37;;;;;;;3.80;1.13;;;18.40;99.90;;;;;;5072651;28;20370;-83
2023/01/09 10:26:26;;;;;;;2.58;1.27;;;17.20;99.90;;;;;;5067281;28;20123;-84
2023/01/09 10:29:25;;;;;;;3.58;1.25;;;18.80;99.90;;;;;;5072016;28;20052;-83
2023/01/09 10:32:19;;;;;;;3.80;1.20;;;23.30;99.90;;;;;;5072119;28;20036;-83
2023/01/09 10:35:02;;;;;;;3.42;1.10;;;26.60;99.90;;;;;;5072363;28;20020;-83
2023/01/09 10:37:41;;;;;;;5.35;1.35;;;23.50;99.90;;;;;;5071889;28;20353;-84
2023/01/09 10:40:25;;;;;;;3.40;1.30;;;20.10;99.90;;;;;;5072067;28;20028;-82
2023/01/09 10:43:01;;;;;;;3.10;1.27;;;17.70;99.90;;;;;;5071971;28;20027;-84
2023/01/09 10:45:36;;;;;;;4.15;1.20;;;17.00;99.90;;;;;;5052573;28;20021;-83
2023/01/09 10:48:12;;;;;;;2.47;1.35;;;16.70;99.90;;;;;;5055990;28;20028;-83
2023/01/09 10:50:40;;;;;;;2.08;0.90;;;15.60;99.90;;;;;;5056000;28;20408;-83
2023/01/09 10:53:31;;;;;;;4.70;1.40;;;13.90;99.90;;;;;;5058309;28;20021;-84
2023/01/09 10:56:07;;;;;;;3.20;1.40;;;12.90;99.90;;;;;;5076033;28;20021;-83
2023/01/09 10:58:32;;;;;;;2.83;1.10;;;12.80;99.90;;;;;;5077098;28;20028;-83
2023/01/09 11:01:00;;;;;;;3.80;1.15;;;12.50;99.90;;;;;;5075914;28;20051;-95
2023/01/09 11:03:27;;;;;;;3.65;1.00;;;12.10;99.90;;;;;;5077294;28;20039;-95
2023/01/09 11:05:58;;;;;;;4.00;1.25;;;11.80;99.90;;;;;;5076959;28;20577;-94
2023/01/09 11:08:40;;;;;;;5.22;1.33;;;11.70;99.90;;;;;;5075961;28;20055;-95
2023/01/09 11:11:08;;;;;;;3.55;1.25;;;11.70;99.90;;;;;;5076326;28;20040;-95
2023/01/09 11:13:37;;;;;;;4.28;1.35;;;11.40;99.90;;;;;;5077153;28;20459;-95
2023/01/09 11:16:05;;;;;;;3.47;1.20;;;11.60;99.90;;;;;;5076781;28;20025;-94
2023/01/09 11:18:33;;;;;;;3.90;1.38;;;11.40;99.90;;;;;;5075458;28;20024;-94
2023/01/09 11:21:25;;;;;;;4.13;1.17;;;12.00;99.90;;;;;;5076576;28;20069;-94
2023/01/09 11:23:51;;;;;;;6.15;1.63;;;12.70;99.90;;;;;;5076439;28;20162;-94
2023/01/09 11:26:25;;;;;;;4.93;1.00;;;12.90;99.90;;;;;;5075335;28;20476;-94
2023/01/09 11:29:09;;;;;;;4.35;1.15;;;13.60;99.90;;;;;;5076466;28;20049;-95
2023/01/09 11:31:35;;;;;;;3.60;1.17;;;13.20;99.90;;;;;;5076693;28;20025;-95
2023/01/09 11:34:01;;;;;;;2.72;0.90;;;12.70;99.90;;;;;;5076657;28;20031;-95
2023/01/09 11:36:27;;;;;;;4.78;1.50;;;12.70;99.90;;;;;;5075294;28;20480;-94
2023/01/09 11:38:56;;;;;;;3.72;1.20;;;14.90;99.90;;;;;;5075685;28;20477;-94
2023/01/09 11:41:25;;;;;;;4.60;1.60;;;14.90;99.90;;;;;;5076305;28;20024;-94
2023/01/09 11:43:54;;;;;;;4.05;1.27;;;15.10;99.90;;;;;;5075230;28;20032;-92
2023/01/09 11:46:33;;;;;;;4.50;1.60;;;19.50;99.90;;;;;;5076273;28;20040;-93
2023/01/09 11:49:02;;;;;;;2.83;1.40;;;16.80;99.90;;;;;;5074918;28;20025;-93
2023/01/09 11:51:31;;;;;;;4.47;1.65;;;15.40;99.90;;;;;;5076194;28;20086;-92
2023/01/09 11:54:29;;;;;;;3.47;1.40;;;13.70;99.90;;;;;;5108810;28;20028;-92
2023/01/09 11:56:55;;;;;;;2.92;1.33;;;12.50;99.90;;;;;;5076124;28;20025;-92
2023/01/09 11:59:26;;;;;;;4.07;1.40;;;13.10;99.90;;;;;;5075099;28;20508;-92
2023/01/09 12:02:04;;;;;;;4.93;1.60;;;14.10;99.90;;;;;;5076327;28;20472;-93
2023/01/09 12:04:51;;;;;;;4.35;1.23;;;13.80;99.90;;;;;;5074875;28;20052;-92
2023/01/09 12:07:42;;;;;;;5.25;1.70;;;13.30;99.90;;;;;;5074625;28;20028;-92
2023/01/09 12:10:44;;;;;;;3.80;1.42;;;13.30;99.90;;;;;;5075153;28;20055;-92
2023/01/09 12:13:10;;;;;;;4.68;1.20;;;12.80;99.90;;;;;;5075786;28;20431;-91
2023/01/09 12:16:17;;;;;;;5.00;1.50;;;12.40;99.90;;;;;;5076004;28;20025;-92
2023/01/09 12:19:03;;;;;;;2.97;1.60;;;11.90;99.90;;;;;;5075544;28;20056;-92
2023/01/09 12:21:33;;;;;;;2.58;1.20;;;11.90;99.90;;;;;;5075623;28;20021;-92
2023/01/09 12:24:17;;;;;;;2.75;1.00;;;11.70;99.90;;;;;;5075370;28;20035;-93
2023/01/09 12:27:03;;;;;;;4.35;1.17;;;11.80;99.90;;;;;;5075063;28;20499;-92
2023/01/09 12:29:34;;;;;;;4.30;1.10;;;11.60;99.90;;;;;;5075044;28;20041;-92
2023/01/09 12:32:26;;;;;;;4.25;1.50;;;11.90;99.90;;;;;;5075497;28;20028;-92
2023/01/09 12:35:28;;;;;;;3.75;1.35;;;11.80;99.90;;;;;;5075426;28;20019;-92
2023/01/09 12:38:14;;;;;;;6.25;1.13;;;11.90;99.90;;;;;;5075103;28;20461;-92
2023/01/09 12:41:08;;;;;;;4.55;1.50;;;11.30;99.90;;;;;;5075154;28;20024;-92
2023/01/09 12:43:53;;;;;;;5.15;1.38;;;11.20;99.90;;;;;;5074951;28;20020;-92
2023/01/09 12:46:19;;;;;;;2.88;1.25;;;11.30;99.90;;;;;;5075260;28;20028;-92
2023/01/09 12:49:13;;;;;;;4.20;1.42;;;11.10;99.90;;;;;;5075686;28;20032;-92
2023/01/09 12:52:01;;;;;;;2.55;1.20;;;10.90;99.90;;;;;;5074457;28;20043;-92
2023/01/09 12:55:00;;;;;;;3.25;1.15;;;10.70;99.90;;;;;;5074930;28;20028;-92
2023/01/09 12:57:29;;;;;;;5.88;1.70;;;10.80;99.90;;;;;;5070355;28;20044;-92
2023/01/09 13:00:01;;;;;;;5.50;1.38;;;10.80;99.90;;;;;;5074867;28;20032;-91
2023/01/09 13:02:40;;;;;;;5.43;2.00;;;10.70;99.90;;;;;;5073938;28;20451;-92
2023/01/09 13:05:14;;;;;;;4.03;1.55;;;10.80;99.90;;;;;;5074592;28;20028;-92
2023/01/09 13:07:43;;;;;;;6.25;1.45;;;10.50;99.90;;;;;;5074697;28;20024;-93
2023/01/09 13:10:20;;;;;;;3.67;1.02;;;10.10;99.90;;;;;;5073215;28;20020;-92
2023/01/09 13:12:47;;;;;;;3.50;0.95;;;9.50;99.90;;;;;;5074916;28;20036;-93
2023/01/09 13:15:34;;;;;;;2.78;0.98;;;8.90;99.90;;;;;;5074787;28;20071;-92
2023/01/09 13:18:26;;;;;;;2.83;0.90;;;8.40;99.90;;;;;;5074504;28;20035;-92
2023/01/09 13:20:55;;;;;;;3.10;0.85;;;8.10;99.90;;;;;;5074065;28;20020;-92
2023/01/09 13:23:43;;;;;;;3.05;0.90;;;7.80;99.90;;;;;;5074451;28;20082;-92
2023/01/09 13:26:21;;;;;;;1.55;0.70;;;8.00;99.90;;;;;;5074228;28;20023;-93